Time;durP1;ratioP1;P1;durP2;ratioP2;P2;SDS_P1;SDS_P2;PMS_P1;PMS_P2;Temp;Humidity;BMP_temperature;BMP_pressure;BME280_temperature;BME280_humidity;BME280_pressure;Samples;Min_cycle;Max_cycle;Signal;HPM_P1;HPM_P2
2020/12/29 00:01:47;;;;;;;173.15;88.85;;;17.90;62.70;;;;;;5116920;28;20032;-57
2020/12/29 00:04:15;;;;;;;186.65;97.38;;;17.90;62.20;;;;;;5117712;28;20028;-58
2020/12/29 00:06:54;;;;;;;218.70;115.78;;;17.90;62.20;;;;;;5117582;28;20043;-56
2020/12/29 00:09:25;;;;;;;234.98;123.57;;;17.90;61.90;;;;;;5117259;28;20075;-55
2020/12/29 00:11:52;;;;;;;249.98;129.77;;;17.90;61.90;;;;;;5116407;28;20024;-53
2020/12/29 00:14:18;;;;;;;282.48;135.45;;;17.90;61.80;;;;;;5117223;28;20102;-56
2020/12/29 00:16:44;;;;;;;253.15;131.77;;;17.90;61.80;;;;;;5117482;28;20039;-55
2020/12/29 00:19:11;;;;;;;247.82;126.95;;;17.90;61.90;;;;;;5117371;28;20403;-57
2020/12/29 00:21:41;;;;;;;230.88;122.45;;;17.80;61.80;;;;;;5116923;28;20071;-55
2020/12/29 00:24:07;;;;;;;228.73;118.10;;;17.70;61.80;;;;;;5117179;28;20027;-55
2020/12/29 00:26:33;;;;;;;208.77;112.82;;;17.80;62.20;;;;;;5117203;28;20020;-58
2020/12/29 00:28:59;;;;;;;195.40;104.50;;;17.90;61.70;;;;;;5117161;27;20539;-57
2020/12/29 00:31:25;;;;;;;155.82;83.80;;;17.90;61.50;;;;;;5114767;28;20035;-55
2020/12/29 00:33:54;;;;;;;129.35;66.22;;;17.90;57.20;;;;;;5116860;28;20054;-54
2020/12/29 00:36:20;;;;;;;132.57;68.72;;;17.90;54.10;;;;;;5116367;28;20036;-58
2020/12/29 00:38:46;;;;;;;134.20;70.30;;;17.70;55.00;;;;;;5117053;28;20083;-54
2020/12/29 00:41:13;;;;;;;131.23;68.47;;;17.50;55.80;;;;;;5116836;28;20028;-55
2020/12/29 00:43:40;;;;;;;135.88;70.35;;;17.40;56.60;;;;;;5116855;28;20475;-53
2020/12/29 00:46:07;;;;;;;135.95;69.97;;;17.40;57.50;;;;;;5115936;28;20421;-54
2020/12/29 00:48:34;;;;;;;137.15;70.53;;;17.30;58.00;;;;;;5116669;28;20031;-55
2020/12/29 00:51:05;;;;;;;139.02;70.97;;;17.30;58.50;;;;;;5116370;28;20039;-55
2020/12/29 00:53:31;;;;;;;132.90;70.13;;;17.20;58.90;;;;;;5117205;28;20032;-52
2020/12/29 00:55:59;;;;;;;130.25;69.60;;;17.30;59.10;;;;;;5116736;28;20350;-52
2020/12/29 00:58:25;;;;;;;133.48;69.50;;;17.20;59.50;;;;;;5116579;28;20028;-55
2020/12/29 01:00:51;;;;;;;136.13;67.93;;;17.20;59.80;;;;;;5113942;28;20396;-52
2020/12/29 01:03:16;;;;;;;126.15;68.13;;;17.20;59.80;;;;;;5116555;28;20042;-54
2020/12/29 01:05:44;;;;;;;126.07;66.75;;;17.20;59.90;;;;;;5116334;28;20031;-52
2020/12/29 01:08:10;;;;;;;128.93;65.90;;;17.30;59.90;;;;;;5116772;28;20079;-54
2020/12/29 01:10:35;;;;;;;129.05;67.50;;;17.40;59.80;;;;;;5116439;28;20108;-55
2020/12/29 01:13:01;;;;;;;128.65;68.38;;;17.50;59.50;;;;;;5116381;28;20080;-54
2020/12/29 01:15:26;;;;;;;123.30;64.45;;;17.60;59.40;;;;;;5116243;28;20028;-54
2020/12/29 01:17:52;;;;;;;107.18;61.20;;;17.60;59.30;;;;;;5116260;28;20049;-54
2020/12/29 01:20:18;;;;;;;115.60;63.42;;;17.60;59.30;;;;;;5116632;28;20358;-56
2020/12/29 01:22:44;;;;;;;123.38;65.75;;;17.60;59.30;;;;;;5116046;28;20035;-54
2020/12/29 01:25:09;;;;;;;118.35;62.75;;;17.60;59.50;;;;;;5116082;28;20055;-55
2020/12/29 01:27:36;;;;;;;103.68;56.97;;;17.60;59.50;;;;;;5116239;28;20457;-51
2020/12/29 01:30:03;;;;;;;107.30;58.40;;;17.60;59.80;;;;;;5116158;28;20461;-56
2020/12/29 01:32:30;;;;;;;107.75;57.40;;;17.80;59.50;;;;;;5115705;28;20176;-54
2020/12/29 01:34:55;;;;;;;99.65;54.97;;;17.90;59.00;;;;;;5115905;28;20023;-55
2020/12/29 01:37:21;;;;;;;115.95;57.85;;;18.00;58.80;;;;;;5116257;28;20149;-55
2020/12/29 01:39:47;;;;;;;106.20;55.92;;;18.00;58.70;;;;;;5115832;28;20028;-53
2020/12/29 01:42:13;;;;;;;101.05;52.92;;;18.00;58.80;;;;;;5115848;28;20036;-53
2020/12/29 01:44:39;;;;;;;93.32;51.83;;;17.80;59.00;;;;;;5115843;28;20058;-54
2020/12/29 01:47:04;;;;;;;95.63;53.38;;;17.70;59.20;;;;;;5115361;28;20038;-54
2020/12/29 01:49:30;;;;;;;96.70;51.35;;;17.70;59.40;;;;;;5115577;28;20024;-56
2020/12/29 01:51:55;;;;;;;94.10;51.75;;;17.60;59.60;;;;;;5115803;28;20019;-53
2020/12/29 01:54:21;;;;;;;92.32;50.38;;;17.50;59.70;;;;;;5114720;28;20096;-52
2020/12/29 01:56:47;;;;;;;92.43;48.92;;;17.50;59.80;;;;;;5115779;28;20054;-52
2020/12/29 01:59:13;;;;;;;93.18;50.22;;;17.50;59.80;;;;;;5114127;28;20020;-54
2020/12/29 02:01:43;;;;;;;90.13;47.40;;;17.50;59.90;;;;;;5115335;28;20034;-54
2020/12/29 02:04:10;;;;;;;;;;;17.50;59.90;;;;;;5115787;28;20032;-55
2020/12/29 02:06:37;;;;;;;83.90;44.03;;;17.40;60.10;;;;;;5115565;28;19995;-55
2020/12/29 02:09:04;;;;;;;78.72;45.25;;;17.40;60.20;;;;;;5114902;28;20058;-55
2020/12/29 02:11:31;;;;;;;80.75;46.60;;;17.30;60.20;;;;;;5115111;28;20034;-53
2020/12/29 02:13:57;;;;;;;80.63;44.58;;;17.40;60.40;;;;;;5115143;28;20039;-54
2020/12/29 02:16:23;;;;;;;87.07;45.67;;;17.30;60.30;;;;;;5115646;27;20028;-55
2020/12/29 02:18:48;;;;;;;84.75;45.65;;;17.30;60.30;;;;;;5115147;28;20145;-54
2020/12/29 02:21:14;;;;;;;85.65;45.50;;;17.30;60.40;;;;;;5115014;28;20114;-54
2020/12/29 02:23:40;;;;;;;82.32;43.72;;;17.20;60.40;;;;;;5114905;28;20035;-54
2020/12/29 02:26:06;;;;;;;78.00;41.70;;;17.20;60.50;;;;;;5114957;28;20467;-55
2020/12/29 02:28:32;;;;;;;79.47;41.05;;;17.10;60.40;;;;;;5114922;28;20381;-54
2020/12/29 02:30:58;;;;;;;73.22;39.58;;;17.10;60.70;;;;;;5114819;28;20381;-54
2020/12/29 02:33:24;;;;;;;72.72;40.95;;;17.10;60.90;;;;;;5114898;28;20028;-55
2020/12/29 02:35:50;;;;;;;69.30;37.97;;;17.20;60.60;;;;;;5114916;28;20065;-54
2020/12/29 02:38:23;;;;;;;71.63;37.63;;;17.40;60.10;;;;;;5114607;28;20427;-55
2020/12/29 02:40:49;;;;;;;71.03;37.00;;;17.50;59.60;;;;;;5114774;28;20032;-54
2020/12/29 02:43:15;;;;;;;68.88;36.25;;;17.70;59.10;;;;;;5113494;28;20408;-53
2020/12/29 02:45:41;;;;;;;67.35;38.83;;;17.90;58.80;;;;;;5114613;28;20039;-53
2020/12/29 02:48:07;;;;;;;69.22;38.30;;;17.90;58.70;;;;;;5114470;28;20024;-56
2020/12/29 02:50:33;;;;;;;65.20;36.50;;;17.80;58.70;;;;;;5114371;28;20477;-53
2020/12/29 02:52:59;;;;;;;65.50;35.28;;;17.80;58.70;;;;;;5114615;28;20054;-56
2020/12/29 02:55:25;;;;;;;66.90;37.28;;;17.80;58.60;;;;;;5114497;28;20526;-54
2020/12/29 02:57:50;;;;;;;68.47;34.35;;;17.90;58.60;;;;;;5114139;28;20487;-55
2020/12/29 03:00:16;;;;;;;67.95;37.20;;;17.80;58.70;;;;;;5114327;28;20372;-54
2020/12/29 03:02:42;;;;;;;59.17;34.50;;;17.80;58.60;;;;;;5114214;28;20034;-52
2020/12/29 03:05:07;;;;;;;64.38;34.50;;;17.80;58.50;;;;;;5114475;28;20127;-54
2020/12/29 03:07:33;;;;;;;62.80;32.38;;;17.80;58.60;;;;;;5114028;28;20429;-53
2020/12/29 03:09:58;;;;;;;60.10;33.63;;;17.70;58.70;;;;;;5114283;28;20477;-56
2020/12/29 03:12:24;;;;;;;58.92;31.63;;;17.70;58.70;;;;;;5113934;28;20069;-56
2020/12/29 03:14:50;;;;;;;53.45;30.13;;;17.70;58.80;;;;;;5114246;28;20531;-55
2020/12/29 03:17:15;;;;;;;53.35;30.38;;;17.60;58.90;;;;;;5114306;28;20031;-55
2020/12/29 03:19:41;;;;;;;53.28;31.02;;;17.60;59.00;;;;;;5113833;28;20047;-55
2020/12/29 03:22:06;;;;;;;58.50;32.38;;;17.60;59.10;;;;;;5112953;28;20461;-57
2020/12/29 03:24:32;;;;;;;70.10;37.33;;;17.60;59.20;;;;;;5113553;28;20354;-56
2020/12/29 03:26:58;;;;;;;120.95;61.45;;;17.60;59.20;;;;;;5113755;28;20065;-57
2020/12/29 03:29:23;;;;;;;114.03;60.85;;;17.60;59.40;;;;;;5113895;28;20035;-57
2020/12/29 03:31:49;;;;;;;149.23;77.45;;;17.60;59.60;;;;;;5114072;28;20031;-56
2020/12/29 03:34:26;;;;;;;185.18;97.88;;;17.60;59.60;;;;;;5113898;28;20020;-55
2020/12/29 03:36:52;;;;;;;208.65;111.05;;;17.60;59.50;;;;;;5114025;28;20453;-55
2020/12/29 03:39:19;;;;;;;226.48;120.65;;;17.60;59.60;;;;;;5113940;28;20373;-55
2020/12/29 03:41:45;;;;;;;223.80;123.10;;;17.70;59.60;;;;;;5113829;28;20469;-53
2020/12/29 03:44:11;;;;;;;224.90;116.85;;;17.90;59.30;;;;;;5113956;28;20107;-55
2020/12/29 03:46:37;;;;;;;213.65;115.95;;;18.00;59.00;;;;;;5114173;28;20032;-55
2020/12/29 03:49:03;;;;;;;206.38;113.15;;;18.00;59.00;;;;;;5113742;28;20115;-55
2020/12/29 03:51:28;;;;;;;209.15;110.35;;;18.00;59.10;;;;;;5113905;28;20028;-56
2020/12/29 03:53:54;;;;;;;201.27;110.72;;;17.90;59.30;;;;;;5113808;28;20043;-55
2020/12/29 03:56:20;;;;;;;188.10;106.47;;;17.80;59.50;;;;;;5114024;28;20054;-55
2020/12/29 03:58:45;;;;;;;188.80;101.13;;;17.70;59.60;;;;;;5113830;28;20028;-56
2020/12/29 04:01:11;;;;;;;174.32;99.22;;;17.70;59.80;;;;;;5113513;28;20464;-55
2020/12/29 04:03:37;;;;;;;181.85;99.25;;;17.60;59.80;;;;;;5112331;28;20038;-54
2020/12/29 04:06:03;;;;;;;178.85;97.25;;;17.60;60.00;;;;;;5113739;28;20131;-57
2020/12/29 04:08:29;;;;;;;169.38;94.00;;;17.60;60.10;;;;;;5113652;28;20055;-55
2020/12/29 04:10:54;;;;;;;166.25;89.53;;;17.50;60.10;;;;;;5113447;28;20475;-56
2020/12/29 04:13:20;;;;;;;162.68;89.00;;;17.50;60.40;;;;;;5113399;28;20036;-56
2020/12/29 04:15:46;;;;;;;156.00;85.75;;;17.40;60.40;;;;;;5113680;28;20027;-56
2020/12/29 04:18:12;;;;;;;147.32;83.38;;;17.40;60.60;;;;;;5113466;28;20023;-56
2020/12/29 04:20:38;;;;;;;156.95;83.13;;;17.30;60.80;;;;;;5113495;28;20031;-55
2020/12/29 04:23:03;;;;;;;141.63;78.70;;;17.30;60.90;;;;;;5113440;28;20032;-54
2020/12/29 04:25:29;;;;;;;142.50;77.25;;;17.30;61.10;;;;;;5113980;28;20028;-56
2020/12/29 04:27:54;;;;;;;139.25;76.57;;;17.30;61.10;;;;;;5113724;28;20055;-56
2020/12/29 04:30:20;;;;;;;130.60;72.57;;;17.30;61.10;;;;;;5113635;28;20077;-55
2020/12/29 04:32:48;;;;;;;128.82;70.30;;;17.20;61.30;;;;;;5113406;28;20035;-55
2020/12/29 04:35:14;;;;;;;118.72;66.78;;;17.20;61.30;;;;;;5113977;28;20026;-55
2020/12/29 04:37:39;;;;;;;119.88;67.65;;;17.10;61.30;;;;;;5117124;28;20389;-53
2020/12/29 04:40:06;;;;;;;119.80;66.18;;;17.10;61.50;;;;;;5116728;28;20020;-54
2020/12/29 04:42:32;;;;;;;117.97;63.25;;;17.10;61.50;;;;;;5117233;28;20028;-51
2020/12/29 04:44:58;;;;;;;112.18;60.90;;;17.10;61.60;;;;;;5117108;28;20028;-53
2020/12/29 04:47:30;;;;;;;99.25;58.60;;;17.10;61.60;;;;;;5116985;28;20488;-55
2020/12/29 04:49:57;;;;;;;95.57;54.60;;;17.10;61.60;;;;;;5116470;28;20498;-55
2020/12/29 04:52:23;;;;;;;104.47;55.85;;;17.10;61.60;;;;;;5117087;28;20062;-55
2020/12/29 04:54:54;;;;;;;97.20;53.45;;;17.10;61.60;;;;;;5116828;28;20077;-55
2020/12/29 04:57:22;;;;;;;97.93;52.78;;;17.10;61.60;;;;;;5116770;28;20031;-55
2020/12/29 04:59:48;;;;;;;92.20;51.10;;;17.00;61.50;;;;;;5116740;28;20024;-55
2020/12/29 05:02:14;;;;;;;88.70;50.13;;;17.10;61.60;;;;;;5116746;28;20051;-54
2020/12/29 05:04:40;;;;;;;90.53;50.28;;;17.00;61.40;;;;;;5116564;28;20074;-51
2020/12/29 05:07:05;;;;;;;87.45;48.22;;;17.00;61.30;;;;;;5115071;28;20118;-53
2020/12/29 05:09:32;;;;;;;79.88;46.20;;;17.00;61.20;;;;;;5116079;28;20055;-56
2020/12/29 05:11:58;;;;;;;81.30;45.58;;;17.10;61.30;;;;;;5116184;28;20027;-56
2020/12/29 05:14:24;;;;;;;80.03;44.55;;;17.10;61.00;;;;;;5116438;28;20110;-57
2020/12/29 05:16:50;;;;;;;77.15;43.28;;;17.20;60.80;;;;;;5116238;28;20111;-55
2020/12/29 05:19:19;;;;;;;76.93;41.33;;;17.30;60.40;;;;;;5116276;28;20019;-56
2020/12/29 05:21:45;;;;;;;112.05;56.33;;;17.40;60.00;;;;;;5116155;28;20035;-54
2020/12/29 05:24:24;;;;;;;130.43;65.95;;;17.50;59.60;;;;;;5115940;28;20063;-56
2020/12/29 05:26:57;;;;;;;160.27;84.45;;;17.60;59.30;;;;;;5116373;28;20112;-56
2020/12/29 05:29:23;;;;;;;181.32;98.38;;;17.80;58.90;;;;;;5116151;28;20028;-55
2020/12/29 05:31:50;;;;;;;235.65;125.90;;;17.90;58.60;;;;;;5115809;28;20035;-56
2020/12/29 05:34:27;;;;;;;220.38;116.05;;;18.00;58.30;;;;;;5116184;28;20100;-57
2020/12/29 05:36:54;;;;;;;202.25;108.40;;;18.10;58.00;;;;;;5115846;28;20028;-55
2020/12/29 05:39:25;;;;;;;196.50;101.75;;;18.20;57.80;;;;;;5115838;28;20130;-53
2020/12/29 05:41:53;;;;;;;191.88;100.18;;;18.20;57.50;;;;;;5115058;28;20370;-53
2020/12/29 05:44:27;;;;;;;179.43;93.70;;;18.30;57.40;;;;;;5116297;28;20432;-51
2020/12/29 05:46:56;;;;;;;172.57;91.07;;;18.40;57.30;;;;;;5115496;28;20078;-54
2020/12/29 05:49:23;;;;;;;158.43;86.87;;;18.50;57.20;;;;;;5115487;28;20023;-54
2020/12/29 05:51:51;;;;;;;162.82;88.25;;;18.60;57.00;;;;;;5115506;28;20087;-57
2020/12/29 05:54:18;;;;;;;158.38;85.40;;;18.60;56.90;;;;;;5115505;28;20076;-56
2020/12/29 05:56:45;;;;;;;152.75;80.35;;;18.70;57.10;;;;;;5115551;28;20077;-54
2020/12/29 05:59:13;;;;;;;145.45;77.18;;;18.70;56.90;;;;;;5115478;28;20039;-56
2020/12/29 06:01:40;;;;;;;143.68;75.78;;;18.80;56.90;;;;;;5115335;28;20057;-54
2020/12/29 06:04:07;;;;;;;136.75;73.95;;;18.90;56.60;;;;;;5115708;28;20106;-55
2020/12/29 06:06:35;;;;;;;139.80;72.97;;;19.00;56.40;;;;;;5115438;28;20037;-55
2020/12/29 06:09:03;;;;;;;137.07;71.50;;;19.10;56.10;;;;;;5114881;28;20132;-55
2020/12/29 06:11:38;;;;;;;130.27;73.10;;;19.20;55.90;;;;;;5115483;28;20051;-54
2020/12/29 06:14:11;;;;;;;120.82;65.95;;;19.30;55.60;;;;;;5115105;28;20028;-57
2020/12/29 06:16:39;;;;;;;119.85;66.70;;;19.40;55.40;;;;;;5115472;28;20096;-52
2020/12/29 06:19:23;;;;;;;112.43;64.95;;;19.90;54.80;;;;;;5115192;28;20110;-55
2020/12/29 06:22:08;;;;;;;105.07;60.65;;;19.50;55.30;;;;;;5115312;28;20024;-56
2020/12/29 06:24:54;;;;;;;106.10;59.20;;;19.50;55.30;;;;;;5114753;28;20419;-52
2020/12/29 06:27:27;;;;;;;105.15;57.33;;;19.40;55.30;;;;;;5114844;28;20032;-55
2020/12/29 06:29:54;;;;;;;97.95;55.50;;;19.40;55.40;;;;;;5114988;28;20084;-55
2020/12/29 06:32:20;;;;;;;95.57;54.70;;;19.40;55.50;;;;;;5114775;28;20023;-55
2020/12/29 06:34:47;;;;;;;98.47;54.70;;;19.30;55.60;;;;;;5115071;28;20027;-54
2020/12/29 06:38:01;;;;;;;97.25;53.75;;;19.20;55.60;;;;;;5114810;28;20027;-53
2020/12/29 06:40:29;;;;;;;87.53;49.20;;;19.20;55.70;;;;;;5051916;28;20416;-55
2020/12/29 06:42:56;;;;;;;86.40;49.28;;;19.10;55.80;;;;;;5102558;28;20064;-55
2020/12/29 06:45:21;;;;;;;86.72;47.75;;;19.10;55.90;;;;;;5114582;28;20385;-55
2020/12/29 06:47:48;;;;;;;83.13;46.85;;;19.00;56.00;;;;;;5114287;28;20024;-54
2020/12/29 06:50:40;;;;;;;74.60;43.22;;;19.00;56.10;;;;;;5114225;28;20031;-54
2020/12/29 06:53:06;;;;;;;80.35;42.95;;;18.90;56.20;;;;;;5111361;28;20389;-57
2020/12/29 06:55:40;;;;;;;69.85;40.83;;;18.90;56.20;;;;;;5114230;28;20380;-53
2020/12/29 06:58:06;;;;;;;69.97;41.10;;;18.80;56.40;;;;;;5113771;28;20110;-55
2020/12/29 07:00:34;;;;;;;67.20;36.80;;;18.70;56.80;;;;;;5114136;28;20111;-55
2020/12/29 07:03:00;;;;;;;65.35;35.63;;;18.60;56.90;;;;;;5114156;28;20039;-54
2020/12/29 07:05:34;;;;;;;60.92;35.72;;;18.70;56.60;;;;;;5114638;28;20027;-57
2020/12/29 07:08:03;;;;;;;59.65;33.88;;;18.60;56.40;;;;;;5114144;28;20055;-57
2020/12/29 07:10:46;;;;;;;61.80;33.45;;;18.70;56.20;;;;;;5114530;28;20057;-55
2020/12/29 07:13:14;;;;;;;56.30;29.88;;;18.60;56.20;;;;;;5114084;28;20098;-55
2020/12/29 07:15:49;;;;;;;56.75;30.85;;;18.50;56.10;;;;;;5113932;28;20031;-54
2020/12/29 07:18:28;;;;;;;52.67;29.10;;;18.40;56.00;;;;;;5114724;28;20020;-54
2020/12/29 07:20:55;;;;;;;54.97;30.27;;;18.40;56.10;;;;;;5114267;28;20049;-53
2020/12/29 07:23:24;;;;;;;50.28;27.67;;;18.30;56.10;;;;;;5114132;28;20028;-53
2020/12/29 07:25:56;;;;;;;51.67;28.58;;;18.30;56.20;;;;;;5114405;28;20055;-55
2020/12/29 07:28:26;;;;;;;48.53;28.17;;;18.30;56.10;;;;;;5113874;28;20415;-53
2020/12/29 07:30:53;;;;;;;48.08;27.25;;;18.20;56.00;;;;;;5113980;28;20065;-54
2020/12/29 07:33:25;;;;;;;44.63;26.10;;;18.10;56.40;;;;;;5113795;28;20081;-57
2020/12/29 07:35:51;;;;;;;49.05;28.15;;;18.10;57.20;;;;;;5113957;28;20090;-58
2020/12/29 07:38:25;;;;;;;45.28;25.80;;;18.10;56.60;;;;;;5113849;28;20028;-58
2020/12/29 07:40:51;;;;;;;45.65;25.92;;;18.20;56.30;;;;;;5113639;28;20346;-57
2020/12/29 07:43:17;;;;;;;46.63;25.15;;;18.20;56.10;;;;;;5113731;28;20028;-57
2020/12/29 07:45:43;;;;;;;50.63;24.80;;;18.30;55.90;;;;;;5113994;28;20050;-57
2020/12/29 07:48:09;;;;;;;97.05;54.85;;;18.30;56.00;;;;;;5113708;28;20120;-53
2020/12/29 07:50:36;;;;;;;107.97;55.72;;;18.30;55.40;;;;;;5113938;28;20036;-50
2020/12/29 07:53:07;;;;;;;122.68;70.18;;;18.30;53.00;;;;;;5113740;28;20024;-50
2020/12/29 07:55:34;;;;;;;112.93;64.65;;;18.40;51.50;;;;;;5114112;28;20141;-50
2020/12/29 07:58:07;;;;;;;129.13;70.65;;;18.40;49.90;;;;;;5113663;28;20058;-50
2020/12/29 08:00:34;;;;;;;130.93;75.85;;;18.40;48.30;;;;;;5113703;28;20082;-51
2020/12/29 08:03:00;;;;;;;117.38;66.68;;;18.40;47.70;;;;;;5113170;28;20043;-55
2020/12/29 08:05:27;;;;;;;88.35;52.80;;;18.40;46.70;;;;;;5113440;28;20024;-51
2020/12/29 08:07:54;;;;;;;77.30;45.28;;;18.40;46.10;;;;;;5113176;28;20047;-50
2020/12/29 08:10:24;;;;;;;66.55;40.25;;;18.40;45.20;;;;;;5116026;28;20039;-50
2020/12/29 08:12:55;;;;;;;59.78;36.05;;;18.40;45.10;;;;;;5117430;28;20035;-55
2020/12/29 08:15:29;;;;;;;;;;;18.40;45.20;;;;;;5118006;28;20453;-56
2020/12/29 08:18:20;;;;;;;50.17;30.83;;;18.40;45.70;;;;;;5117416;28;20260;-58
2020/12/29 08:20:46;;;;;;;52.00;31.13;;;18.40;46.50;;;;;;5116729;28;20031;-55
2020/12/29 08:23:14;;;;;;;47.67;31.27;;;18.40;47.50;;;;;;5117306;28;20036;-58
2020/12/29 08:25:46;;;;;;;53.30;32.33;;;18.40;48.10;;;;;;5117474;28;20081;-58
2020/12/29 08:28:12;;;;;;;49.45;29.48;;;18.40;48.90;;;;;;5117422;28;20024;-58
2020/12/29 08:30:38;;;;;;;51.88;28.27;;;18.40;49.40;;;;;;5116807;28;20473;-55
2020/12/29 08:33:05;;;;;;;51.33;28.50;;;18.40;49.60;;;;;;5117519;28;20023;-56
2020/12/29 08:35:46;;;;;;;45.45;28.08;;;18.30;49.80;;;;;;5117420;28;20063;-56
2020/12/29 08:38:30;;;;;;;47.30;26.65;;;18.30;50.80;;;;;;5115732;28;20522;-57
2020/12/29 08:40:58;;;;;;;49.38;26.92;;;18.30;50.60;;;;;;5116982;28;20114;-56
2020/12/29 08:43:27;;;;;;;41.70;25.83;;;18.20;50.90;;;;;;5115772;28;20032;-56
2020/12/29 08:46:04;;;;;;;44.08;26.52;;;18.20;51.20;;;;;;5117153;28;20362;-55
2020/12/29 08:48:30;;;;;;;51.75;28.77;;;18.20;51.40;;;;;;5116756;28;20028;-56
2020/12/29 08:50:57;;;;;;;48.10;25.17;;;18.20;51.70;;;;;;5116818;28;20028;-56
2020/12/29 08:53:27;;;;;;;41.90;26.70;;;18.10;51.90;;;;;;5116517;28;20426;-56
2020/12/29 08:55:53;;;;;;;47.42;25.77;;;18.00;52.00;;;;;;5117072;28;20038;-58
2020/12/29 08:58:26;;;;;;;45.17;24.88;;;18.00;52.30;;;;;;5116707;28;20050;-59
2020/12/29 09:00:52;;;;;;;42.70;23.70;;;18.00;52.40;;;;;;5116575;28;20080;-59
2020/12/29 09:03:21;;;;;;;40.78;22.42;;;18.00;52.60;;;;;;5116609;28;20060;-60
2020/12/29 09:05:49;;;;;;;39.17;21.70;;;18.00;52.60;;;;;;5116625;28;20102;-59
2020/12/29 09:08:28;;;;;;;43.75;23.60;;;18.00;52.80;;;;;;5116419;28;20560;-60
2020/12/29 09:11:14;;;;;;;35.05;19.98;;;18.00;52.80;;;;;;5116721;28;20023;-58
2020/12/29 09:14:05;;;;;;;36.70;21.23;;;18.10;51.30;;;;;;5116402;27;20092;-58
2020/12/29 09:16:31;;;;;;;41.20;21.40;;;18.30;50.70;;;;;;5116435;28;20059;-59
2020/12/29 09:18:57;;;;;;;36.97;21.95;;;18.30;50.80;;;;;;5116507;28;20027;-58
2020/12/29 09:21:26;;;;;;;39.60;21.45;;;18.40;51.20;;;;;;5115441;28;20473;-59
2020/12/29 09:24:01;;;;;;;34.75;19.67;;;18.40;51.50;;;;;;5116156;28;20043;-59
2020/12/29 09:26:27;;;;;;;37.30;20.90;;;18.30;51.50;;;;;;5116057;28;20111;-59
2020/12/29 09:28:54;;;;;;;35.80;20.92;;;18.20;51.70;;;;;;5116122;28;20019;-59
2020/12/29 09:31:28;;;;;;;34.75;20.77;;;18.10;51.90;;;;;;5116371;28;20485;-59
2020/12/29 09:33:54;;;;;;;34.28;20.52;;;18.10;52.00;;;;;;5115093;28;20031;-59
2020/12/29 09:36:23;;;;;;;34.72;19.30;;;18.10;52.40;;;;;;5115757;28;20031;-59
2020/12/29 09:38:50;;;;;;;30.05;18.20;;;18.00;51.60;;;;;;5115965;28;20028;-60
2020/12/29 09:41:16;;;;;;;34.80;20.27;;;18.10;51.20;;;;;;5114511;28;20030;-55
2020/12/29 09:43:44;;;;;;;29.73;17.58;;;18.10;50.50;;;;;;5115836;28;20061;-58
2020/12/29 09:46:10;;;;;;;32.63;16.92;;;18.10;50.30;;;;;;5116046;28;20028;-57
2020/12/29 09:48:35;;;;;;;34.33;17.77;;;18.20;50.10;;;;;;5115482;28;20107;-58
2020/12/29 09:51:01;;;;;;;35.28;17.33;;;18.30;50.00;;;;;;5115051;28;20145;-58
2020/12/29 09:53:26;;;;;;;26.00;15.35;;;18.40;49.90;;;;;;5114508;28;20043;-58
2020/12/29 09:55:54;;;;;;;31.30;17.35;;;18.50;49.80;;;;;;5115579;28;20059;-58
2020/12/29 09:58:20;;;;;;;32.55;15.80;;;18.60;49.60;;;;;;5116013;28;20032;-58
2020/12/29 10:00:47;;;;;;;28.20;17.08;;;18.70;49.50;;;;;;5114144;28;20071;-59
2020/12/29 10:03:16;;;;;;;28.55;15.40;;;18.80;49.40;;;;;;5113251;28;20024;-60
2020/12/29 10:05:43;;;;;;;27.70;15.48;;;18.80;49.30;;;;;;5113175;28;20028;-59
2020/12/29 10:08:10;;;;;;;28.20;16.70;;;18.90;49.40;;;;;;5112708;28;20520;-58
2020/12/29 10:10:35;;;;;;;29.00;15.35;;;18.90;49.50;;;;;;5113109;27;20023;-59
2020/12/29 10:13:01;;;;;;;24.13;14.40;;;18.90;49.50;;;;;;5094798;28;20505;-58
2020/12/29 10:15:27;;;;;;;25.35;14.50;;;18.90;49.50;;;;;;5113569;28;20067;-58
2020/12/29 10:17:52;;;;;;;28.73;14.63;;;18.80;49.80;;;;;;5115216;28;20122;-58
2020/12/29 10:20:18;;;;;;;28.25;15.05;;;18.80;50.10;;;;;;5115210;28;20127;-58
2020/12/29 10:22:44;;;;;;;29.35;15.90;;;18.90;50.10;;;;;;5114821;28;20028;-58
2020/12/29 10:25:14;;;;;;;24.55;15.02;;;18.80;50.20;;;;;;5115053;28;20031;-58
2020/12/29 10:27:40;;;;;;;24.92;14.55;;;18.90;50.10;;;;;;5115454;28;20046;-58
2020/12/29 10:30:05;;;;;;;25.80;14.85;;;18.90;50.00;;;;;;5114691;28;20115;-58
2020/12/29 10:32:31;;;;;;;22.70;14.30;;;18.80;50.00;;;;;;5114899;28;20364;-58
2020/12/29 10:34:57;;;;;;;23.00;13.27;;;18.70;50.10;;;;;;5114756;28;20027;-58
2020/12/29 10:37:22;;;;;;;25.55;13.98;;;18.70;50.30;;;;;;5114769;28;20054;-58
2020/12/29 10:39:48;;;;;;;20.70;13.60;;;18.60;50.30;;;;;;5114925;28;20453;-58
2020/12/29 10:42:14;;;;;;;26.85;13.95;;;18.60;50.50;;;;;;5114648;28;20092;-59
2020/12/29 10:44:39;;;;;;;23.98;13.20;;;18.50;50.50;;;;;;5114532;28;20464;-58
2020/12/29 10:47:05;;;;;;;23.42;13.50;;;18.50;50.70;;;;;;5113052;28;20034;-59
2020/12/29 10:49:31;;;;;;;23.15;13.40;;;18.50;51.10;;;;;;5114306;28;20028;-59
2020/12/29 10:51:56;;;;;;;20.38;12.98;;;18.40;50.50;;;;;;5114549;28;20042;-57
2020/12/29 10:54:22;;;;;;;89.20;49.97;;;18.30;48.80;;;;;;5114684;28;20016;-59
2020/12/29 10:56:48;;;;;;;71.07;43.15;;;18.20;48.80;;;;;;5114198;28;20419;-59
2020/12/29 10:59:13;;;;;;;102.22;61.38;;;18.20;49.30;;;;;;5114234;28;20070;-59
2020/12/29 11:01:39;;;;;;;90.90;50.92;;;18.10;49.90;;;;;;5114498;28;20504;-56
2020/12/29 11:04:04;;;;;;;103.32;60.83;;;18.10;50.40;;;;;;5114273;28;20085;-58
2020/12/29 11:06:30;;;;;;;118.82;67.45;;;18.10;49.50;;;;;;5114203;28;20110;-58
2020/12/29 11:08:56;;;;;;;118.03;65.35;;;18.10;47.90;;;;;;5113862;28;20048;-59
2020/12/29 11:11:21;;;;;;;110.03;59.97;;;18.10;46.80;;;;;;5114117;28;20128;-58
2020/12/29 11:13:48;;;;;;;102.10;54.40;;;18.20;46.90;;;;;;5114120;28;20043;-58
2020/12/29 11:16:14;;;;;;;89.78;49.15;;;18.20;47.50;;;;;;5113989;28;20092;-59
2020/12/29 11:18:40;;;;;;;81.20;45.92;;;18.30;48.20;;;;;;5114165;28;20032;-58
2020/12/29 11:21:06;;;;;;;75.47;41.75;;;18.40;48.70;;;;;;5114077;28;20123;-58
2020/12/29 11:23:31;;;;;;;82.35;43.20;;;18.50;49.00;;;;;;5114154;28;20481;-57
2020/12/29 11:25:58;;;;;;;74.22;40.03;;;18.60;50.10;;;;;;5112922;28;20081;-58
2020/12/29 11:28:24;;;;;;;67.10;39.00;;;18.80;50.70;;;;;;5112709;28;20031;-58
2020/12/29 11:30:50;;;;;;;62.63;38.22;;;18.80;50.80;;;;;;5114107;28;20019;-58
2020/12/29 11:33:16;;;;;;;62.33;35.03;;;19.00;50.70;;;;;;5114421;28;20441;-59
2020/12/29 11:35:44;;;;;;;67.63;36.03;;;19.00;51.60;;;;;;5113759;28;20037;-59
2020/12/29 11:38:09;;;;;;;164.10;91.45;;;19.00;52.00;;;;;;5113907;28;20028;-59
2020/12/29 11:40:35;;;;;;;122.10;67.88;;;19.00;51.60;;;;;;5113597;28;20073;-59
2020/12/29 11:43:01;;;;;;;112.32;63.53;;;18.90;51.30;;;;;;5113717;28;20027;-59
2020/12/29 11:45:27;;;;;;;122.07;67.10;;;18.90;51.20;;;;;;5115683;28;20507;-59
2020/12/29 11:47:53;;;;;;;146.43;80.07;;;18.90;51.30;;;;;;5114739;28;20027;-61
2020/12/29 11:50:18;;;;;;;162.82;87.40;;;18.90;51.50;;;;;;5112573;28;20124;-60
2020/12/29 11:52:44;;;;;;;182.70;101.25;;;18.80;51.40;;;;;;5115153;28;20024;-59
2020/12/29 11:55:10;;;;;;;171.77;93.13;;;18.80;51.50;;;;;;5116828;28;20027;-58
2020/12/29 11:57:36;;;;;;;157.52;88.28;;;18.80;51.40;;;;;;5114813;28;20024;-61
2020/12/29 12:00:06;;;;;;;153.25;85.22;;;18.70;51.00;;;;;;5110678;28;20207;-62
2020/12/29 12:02:31;;;;;;;153.93;80.53;;;18.70;51.00;;;;;;5112172;28;20073;-64
2020/12/29 12:04:57;;;;;;;138.23;76.72;;;18.70;51.10;;;;;;5114513;28;20028;-59
2020/12/29 12:07:23;;;;;;;130.70;72.15;;;18.70;51.20;;;;;;5116146;28;20019;-59
2020/12/29 12:09:48;;;;;;;125.30;67.22;;;18.60;51.30;;;;;;5116241;28;20031;-59
2020/12/29 12:12:14;;;;;;;135.00;68.60;;;18.60;51.40;;;;;;5116241;28;20040;-58
2020/12/29 12:14:39;;;;;;;122.40;68.32;;;18.60;52.60;;;;;;5116057;28;20045;-54
2020/12/29 12:17:05;;;;;;;114.75;61.20;;;18.60;53.60;;;;;;5115952;28;20065;-64
2020/12/29 12:19:30;;;;;;;106.45;57.70;;;18.60;52.50;;;;;;5115069;28;20024;-59
2020/12/29 12:21:56;;;;;;;99.13;56.33;;;18.60;52.60;;;;;;5115807;28;20388;-59
2020/12/29 12:24:22;;;;;;;115.60;54.97;;;18.60;52.80;;;;;;5116008;28;20034;-63
2020/12/29 12:26:47;;;;;;;90.63;55.50;;;18.60;52.70;;;;;;5116111;28;20484;-63